Duckwater, NV (89314)

6:37 AM PDT on July 06, 2015 (GMT -0700)
APRSWXNET | | Change Station
CLOSE
Current Station
Personal Weather Station
Location: Duckwater, NV
Elevation: 6594 ft
Nearby Weather Stations

Elev 6594 ft 39.23 °N, 114.90 °W | Updated 17 minutes ago

Overcast
Overcast
64 °F
Feels Like 64 °F
N
1
Wind Variable Wind from SW
Gusts 1.0 mph

Today
High -- | Low -- °F
--% Chance of Precip.
Yesterday
High -- | Low -- °F
Precip. -- in
5:19 AM 8:08 PM
Waning Gibbous, 75% visible
Pressure 29.93 in
Visibility 10.0 miles
Clouds Overcast 11000 ft
Dew Point 42 °F
Humidity 44%
Rainfall in
Snow Depth Not available.
UV 0 out of 12
Pollen 4.90 out of 12
Air Quality Not available.
Flu Activity Not available.
METAR KELY 061253Z AUTO 00000KT 10SM OVC110 17/07 A3026 RMK AO2 SLP133 T01670072

More Conditions Fewer Conditions

Pressure 29.93 in
Visibility 10.0 miles
Clouds Overcast 11000 ft
Dew Point 42 °F
Humidity 44%
Rainfall in
Snow Depth Not available.
UV 0 out of 12
Pollen 4.90 out of 12
Air Quality Not available.
Flu Activity Not available.
METAR KELY 061253Z AUTO 00000KT 10SM OVC110 17/07 A3026 RMK AO2 SLP133 T01670072

More Conditions Fewer Conditions

10-Day Weather Forecast

×

Almanac

Astronomy

Jul. 06, 2015 Rise Set
Actual Time
Civil Twilight
Nautical Twilight
Astronomical Twilight
Moon
Length of Visible Light
Length of Day
Tomorrow will be .
, % of the Moon is Illuminated

Today's Extremes

State Highs State Lows

Community

WunderPhotos

Upload Photos

1,835,558 photos uploaded!

WunderBlogs® & News

Nearby

Air Quality

  Air Quality AQ Index Pollutant
Not available.

Snow Depth

Station Depth Elevation

Earthquake Activity

City Distance Mag. Time & Date
Minimum magnitude displayed is 2.5.

Coastal Water Temperatures

Place Temperature

Stations

Nearby Weather Stations

Station Location Temp. Windchill Dew Point Humidity Wind Precip. Elev Updated Type